createdAt,value
2023-04-02T04:33:44.140Z,690.80
2023-04-02T04:36:27.822Z,690.95
2023-04-02T04:38:59.434Z,681.17
2023-04-02T04:41:38.647Z,688.38
2023-04-02T04:44:49.232Z,689.10
2023-04-02T04:47:20.862Z,681.45
2023-04-02T04:49:59.431Z,680.75
2023-04-02T04:52:38.699Z,690.15
2023-04-02T04:55:26.881Z,688.78
2023-04-02T04:58:08.290Z,688.17
2023-04-02T05:00:55.141Z,693.67
2023-04-02T05:03:28.112Z,688.90
2023-04-02T05:06:01.227Z,691.05
2023-04-02T05:08:33.721Z,690.03
2023-04-02T05:11:05.249Z,689.53
2023-04-02T05:13:35.975Z,688.50
2023-04-02T05:16:16.307Z,691.83
2023-04-02T05:19:04.293Z,689.77
2023-04-02T05:21:57.568Z,685.47
2023-04-02T05:24:56.455Z,680.60
2023-04-02T05:27:43.681Z,683.58
2023-04-02T05:30:25.432Z,686.07
2023-04-02T05:33:07.830Z,682.28
2023-04-02T05:35:37.229Z,679.08
2023-04-02T05:38:06.555Z,680.90
2023-04-02T05:40:39.932Z,680.10
2023-04-02T05:43:10.976Z,675.20
2023-04-02T05:45:41.213Z,680.77
2023-04-02T05:48:19.432Z,679.30
2023-04-02T05:50:51.508Z,682.28
2023-04-02T05:53:32.732Z,684.63
2023-04-02T05:56:19.002Z,688.90
2023-04-02T05:58:57.955Z,685.42
2023-04-02T06:01:55.947Z,684.37
2023-04-02T06:04:31.325Z,690.90
2023-04-02T06:07:18.049Z,691.45
2023-04-02T06:10:05.005Z,693.22
2023-04-02T06:12:34.389Z,699.28
2023-04-02T06:15:01.297Z,702.35
2023-04-02T06:17:28.418Z,692.35
2023-04-02T06:19:58.660Z,692.28
2023-04-02T06:22:39.585Z,689.78
2023-04-02T06:25:15.094Z,691.67
2023-04-02T06:27:43.155Z,699.27
2023-04-02T06:30:24.563Z,696.72
2023-04-02T06:32:51.229Z,705.92
2023-04-02T06:35:17.948Z,702.80
2023-04-02T06:37:50.072Z,694.58
2023-04-02T06:40:35.603Z,699.13
2023-04-02T06:43:17.101Z,707.23
2023-04-02T06:45:48.338Z,698.20
2023-04-02T06:48:17.510Z,693.97
2023-04-02T06:50:55.505Z,696.70
2023-04-02T06:53:35.649Z,703.70
2023-04-02T06:56:21.815Z,699.60
2023-04-02T06:58:48.522Z,696.90
2023-04-02T07:01:21.564Z,703.47
2023-04-02T07:03:48.357Z,706.00
2023-04-02T07:06:17.928Z,718.05
2023-04-02T07:08:44.817Z,719.20
2023-04-02T07:11:18.249Z,727.83
2023-04-02T07:13:47.786Z,740.42
2023-04-02T07:16:20.708Z,738.83
2023-04-02T07:18:48.298Z,730.55
2023-04-02T07:21:15.569Z,741.92
2023-04-02T07:23:42.692Z,736.55
2023-04-02T07:26:14.810Z,746.60
2023-04-02T07:28:42.226Z,742.08
2023-04-02T07:31:19.168Z,741.53
2023-04-02T07:33:46.421Z,740.00
2023-04-02T07:36:18.831Z,744.15
2023-04-02T07:38:45.732Z,752.55
2023-04-02T07:41:13.049Z,748.13
2023-04-02T07:43:41.039Z,751.47
2023-04-02T07:46:09.228Z,754.03
2023-04-02T07:48:36.217Z,784.10
2023-04-02T07:51:03.386Z,780.13
2023-04-02T07:53:35.554Z,797.97
2023-04-02T07:56:03.817Z,797.97
2023-04-02T07:58:32.093Z,806.95
2023-04-02T08:00:59.824Z,800.80
2023-04-02T08:03:26.822Z,812.08
2023-04-02T08:05:56.042Z,824.93
2023-04-02T08:08:24.274Z,825.28
2023-04-02T08:10:51.556Z,838.40
2023-04-02T08:13:18.852Z,847.03
2023-04-02T08:15:45.742Z,868.65
2023-04-02T08:18:12.510Z,891.00
2023-04-02T08:20:39.519Z,895.20
2023-04-02T08:23:15.325Z,909.40
2023-04-02T08:25:42.038Z,911.85
2023-04-02T08:28:08.774Z,915.58
2023-04-02T08:30:35.931Z,913.42
2023-04-02T08:33:02.656Z,916.07
2023-04-02T08:35:29.763Z,919.73
2023-04-02T08:37:56.462Z,916.50
2023-04-02T08:40:31.862Z,906.92
2023-04-02T08:43:25.338Z,893.83
2023-04-02T08:46:06.944Z,895.70
2023-04-02T08:48:36.938Z,887.50
2023-04-02T08:51:06.230Z,897.67
2023-04-02T08:53:37.183Z,897.40
2023-04-02T08:56:17.796Z,885.10
2023-04-02T08:58:53.523Z,858.42
2023-04-02T09:01:41.544Z,873.30
2023-04-02T09:04:16.804Z,889.05
2023-04-02T09:06:43.954Z,892.25
2023-04-02T09:09:13.107Z,903.60
2023-04-02T09:11:48.677Z,901.20
2023-04-02T09:14:29.020Z,899.38
2023-04-02T09:17:01.870Z,894.33
2023-04-02T09:19:41.802Z,880.40
2023-04-02T09:22:22.428Z,867.10
2023-04-02T09:24:53.679Z,888.30
2023-04-02T09:27:29.878Z,886.75
2023-04-02T09:30:24.735Z,886.13
2023-04-02T09:32:54.051Z,895.40
2023-04-02T09:35:27.003Z,909.70
2023-04-02T09:38:23.392Z,919.70
2023-04-02T09:40:59.070Z,933.78
2023-04-02T09:43:35.304Z,938.97
2023-04-02T09:46:03.574Z,946.88
2023-04-02T09:48:40.794Z,947.60
2023-04-02T09:51:16.397Z,956.42
2023-04-02T09:53:49.107Z,957.95
2023-04-02T09:56:23.001Z,954.22
2023-04-02T09:59:06.112Z,955.47
2023-04-02T10:01:48.646Z,948.00
2023-04-02T10:04:45.299Z,928.38
2023-04-02T10:07:46.567Z,919.78
2023-04-02T10:10:35.055Z,910.30
2023-04-02T10:13:06.963Z,902.70
2023-04-02T10:15:46.877Z,896.63
2023-04-02T10:18:21.541Z,893.72
2023-04-02T10:20:51.658Z,899.65
2023-04-02T10:23:19.383Z,869.50
2023-04-02T10:26:20.228Z,867.08
2023-04-02T10:29:13.286Z,888.58
2023-04-02T10:31:55.114Z,894.75
2023-04-02T10:34:33.666Z,907.88
2023-04-02T10:37:12.267Z,919.85
2023-04-02T10:39:47.390Z,922.28
2023-04-02T10:42:17.039Z,932.85
2023-04-02T10:45:11.185Z,921.55
2023-04-02T10:47:46.040Z,928.90
2023-04-02T10:50:37.052Z,934.55
2023-04-02T10:53:16.309Z,927.33
2023-04-02T10:55:56.629Z,929.53
2023-04-02T10:58:33.341Z,953.67
2023-04-02T11:01:06.700Z,983.88
2023-04-02T11:03:53.064Z,999.90
2023-04-02T11:06:27.637Z,999.90
2023-04-02T11:08:59.858Z,999.90
2023-04-02T11:11:39.961Z,999.90
2023-04-02T11:14:22.174Z,999.90
2023-04-02T11:16:50.540Z,993.20
2023-04-02T11:19:17.190Z,985.13
2023-04-02T11:21:58.010Z,981.25
2023-04-02T11:24:32.735Z,991.15
2023-04-02T11:27:10.264Z,996.13
2023-04-02T11:30:19.697Z,998.63
2023-04-02T11:32:49.643Z,995.10
2023-04-02T11:35:31.739Z,988.58
2023-04-02T11:38:04.253Z,989.17
2023-04-02T11:40:46.940Z,991.97
2023-04-02T11:43:34.504Z,999.90
2023-04-02T11:46:01.297Z,999.90
2023-04-02T11:48:36.226Z,999.90
2023-04-02T11:51:23.342Z,999.90
2023-04-02T11:53:53.736Z,999.90
2023-04-02T11:56:37.285Z,999.90
2023-04-02T11:59:17.495Z,999.90
2023-04-02T12:02:06.573Z,999.90
2023-04-02T12:04:49.400Z,999.90
2023-04-02T12:07:35.009Z,999.90
2023-04-02T12:10:18.054Z,999.90
2023-04-02T12:12:44.875Z,998.40
2023-04-02T12:15:32.111Z,999.90
2023-04-02T12:18:12.590Z,998.72
2023-04-02T12:20:39.523Z,991.90
2023-04-02T12:23:06.706Z,985.92
2023-04-02T12:25:40.145Z,982.03
2023-04-02T12:28:09.620Z,972.70
2023-04-02T12:30:38.245Z,972.90
2023-04-02T12:33:30.518Z,973.15
2023-04-02T12:35:59.516Z,958.15
2023-04-02T12:38:33.333Z,967.50
2023-04-02T12:41:03.663Z,962.47
2023-04-02T12:43:35.630Z,962.28
2023-04-02T12:46:08.412Z,960.90
2023-04-02T12:48:35.906Z,963.83
2023-04-02T12:51:04.022Z,967.95
2023-04-02T12:53:39.271Z,968.05
2023-04-02T12:56:08.211Z,963.38
2023-04-02T12:58:42.824Z,956.05
2023-04-02T13:01:31.506Z,938.42
2023-04-02T13:04:12.190Z,933.60
2023-04-02T13:06:41.469Z,949.72
2023-04-02T13:09:29.818Z,964.03
2023-04-02T13:11:56.916Z,975.33
2023-04-02T13:14:25.578Z,982.23
2023-04-02T13:16:52.277Z,993.45
2023-04-02T13:19:31.114Z,999.53
2023-04-02T13:22:02.765Z,999.75
2023-04-02T13:24:31.908Z,999.67
2023-04-02T13:27:03.570Z,993.23
2023-04-02T13:29:32.145Z,999.88
2023-04-02T13:32:05.266Z,997.00
2023-04-02T13:34:32.247Z,994.93
2023-04-02T13:36:59.335Z,991.38
2023-04-02T13:39:27.057Z,993.90
2023-04-02T13:42:02.445Z,992.15
2023-04-02T13:44:31.521Z,995.90
2023-04-02T13:46:58.758Z,997.65
2023-04-02T13:49:26.527Z,993.80
2023-04-02T13:51:59.323Z,992.33
2023-04-02T13:54:55.822Z,992.75
2023-04-02T13:57:22.482Z,984.33
2023-04-02T13:59:49.486Z,983.42
2023-04-02T14:02:18.831Z,977.63
2023-04-02T14:04:50.975Z,980.20
2023-04-02T14:07:25.960Z,987.10
2023-04-02T14:10:07.547Z,970.50
2023-04-02T14:12:52.561Z,971.08
2023-04-02T14:15:19.118Z,965.35
2023-04-02T14:17:58.060Z,967.28
2023-04-02T14:20:35.046Z,957.80
2023-04-02T14:23:21.248Z,957.20
2023-04-02T14:26:04.348Z,954.85
2023-04-02T14:28:41.771Z,937.95
2023-04-02T14:31:31.519Z,935.55
2023-04-02T14:34:16.699Z,930.63
2023-04-02T14:36:51.086Z,933.95
2023-04-02T14:39:32.634Z,926.77
2023-04-02T14:42:06.626Z,923.78
2023-04-02T14:44:42.788Z,920.05
2023-04-02T14:47:23.218Z,918.70
2023-04-02T14:49:54.719Z,920.70
2023-04-02T14:52:23.941Z,912.28
2023-04-02T14:55:03.168Z,914.15
2023-04-02T14:57:40.853Z,910.58
2023-04-02T15:00:37.603Z,915.00
2023-04-02T15:03:24.803Z,908.70
2023-04-02T15:06:05.257Z,924.47
2023-04-02T15:08:37.958Z,925.78
2023-04-02T15:11:18.586Z,935.22
2023-04-02T15:14:03.983Z,939.97
2023-04-02T15:16:33.158Z,947.83
2023-04-02T15:19:00.841Z,955.45
2023-04-02T15:21:57.722Z,962.30
2023-04-02T15:24:33.754Z,961.90
2023-04-02T15:27:25.416Z,968.15
2023-04-02T15:30:35.120Z,959.67
2023-04-02T15:33:27.377Z,960.10
2023-04-02T15:36:04.510Z,955.83
2023-04-02T15:38:37.817Z,950.30
2023-04-02T15:41:38.371Z,959.30
2023-04-02T15:44:15.824Z,950.30
2023-04-02T15:47:07.216Z,942.85
2023-04-02T15:49:46.466Z,948.20
2023-04-02T15:52:27.351Z,931.70
2023-04-02T15:55:00.506Z,927.22
2023-04-02T15:57:53.187Z,927.35
2023-04-02T16:00:31.096Z,919.83
2023-04-02T16:03:25.351Z,920.75
2023-04-02T16:06:26.670Z,920.08
2023-04-02T16:09:11.726Z,928.03
2023-04-02T16:11:39.447Z,926.25
2023-04-02T16:14:26.107Z,932.47
2023-04-02T16:16:55.913Z,947.85
2023-04-02T16:19:46.952Z,943.88
2023-04-02T16:22:30.050Z,939.10
2023-04-02T16:25:16.402Z,945.33
2023-04-02T16:27:51.328Z,948.95
2023-04-02T16:30:29.519Z,950.25
2023-04-02T16:33:20.616Z,945.30
2023-04-02T16:35:56.857Z,931.25
2023-04-02T16:38:45.118Z,931.15
2023-04-02T16:41:38.669Z,925.60
2023-04-02T16:44:26.479Z,921.13
2023-04-02T16:47:15.217Z,926.40
2023-04-02T16:49:47.616Z,923.78
2023-04-02T16:52:23.038Z,920.17
2023-04-02T16:55:19.580Z,919.30
2023-04-02T16:57:58.193Z,910.53
2023-04-02T17:00:30.777Z,910.10
2023-04-02T17:03:15.519Z,911.97
2023-04-02T17:05:45.230Z,912.05
2023-04-02T17:08:45.635Z,911.40
2023-04-02T17:11:23.711Z,907.30
2023-04-02T17:14:05.759Z,912.05
2023-04-02T17:16:43.470Z,909.67
2023-04-02T17:19:12.811Z,904.17
2023-04-02T17:21:42.203Z,895.55
2023-04-02T17:24:19.125Z,904.78
2023-04-02T17:26:49.760Z,897.25
2023-04-02T17:29:21.592Z,895.38
2023-04-02T17:31:49.852Z,890.15
2023-04-02T17:34:18.504Z,887.05
2023-04-02T17:37:07.113Z,885.83
2023-04-02T17:39:42.539Z,883.53
2023-04-02T17:42:20.710Z,885.42
2023-04-02T17:45:32.156Z,880.10
2023-04-02T17:48:21.239Z,871.63
2023-04-02T17:51:00.314Z,874.97
2023-04-02T17:53:48.950Z,864.13
2023-04-02T17:56:29.643Z,857.63
2023-04-02T17:59:21.561Z,850.47
2023-04-02T18:02:13.128Z,849.08
2023-04-02T18:04:52.182Z,845.25
2023-04-02T18:07:29.426Z,851.22
2023-04-02T18:10:16.457Z,846.13
2023-04-02T18:12:57.945Z,844.33
2023-04-02T18:15:37.472Z,839.80
2023-04-02T18:18:26.589Z,839.25
2023-04-02T18:21:25.641Z,841.22
2023-04-02T18:24:20.893Z,837.85
2023-04-02T18:27:24.366Z,835.28
2023-04-02T18:30:00.212Z,841.55
2023-04-02T18:32:59.243Z,838.95
2023-04-02T18:35:33.342Z,837.80
2023-04-02T18:38:22.354Z,832.55
2023-04-02T18:41:06.333Z,836.30
2023-04-02T18:43:47.170Z,836.08
2023-04-02T18:46:33.811Z,834.50
2023-04-02T18:49:19.330Z,840.30
2023-04-02T18:51:50.215Z,838.42
2023-04-02T18:54:42.996Z,837.63
2023-04-02T18:57:14.567Z,831.40
2023-04-02T18:59:57.452Z,835.92
2023-04-02T19:02:42.640Z,843.58
2023-04-02T19:05:28.150Z,833.60
2023-04-02T19:08:02.372Z,833.03
2023-04-02T19:10:38.450Z,832.25
2023-04-02T19:13:18.996Z,835.83
2023-04-02T19:16:17.611Z,826.65
2023-04-02T19:19:07.756Z,833.67
2023-04-02T19:21:37.717Z,832.50
2023-04-02T19:24:13.443Z,829.65
2023-04-02T19:26:53.339Z,832.87
2023-04-02T19:29:43.148Z,835.35
2023-04-02T19:32:42.135Z,827.47
2023-04-02T19:35:14.769Z,835.08
2023-04-02T19:37:43.624Z,830.60
2023-04-02T19:40:34.653Z,830.17
2023-04-02T19:43:01.418Z,826.80
2023-04-02T19:45:38.920Z,824.65
2023-04-02T19:48:10.788Z,826.63
2023-04-02T19:50:37.994Z,829.28
2023-04-02T19:53:04.621Z,825.60
2023-04-02T19:55:31.284Z,816.70
2023-04-02T19:58:08.527Z,818.92
2023-04-02T20:00:44.186Z,822.67
2023-04-02T20:03:10.943Z,823.97
2023-04-02T20:05:37.837Z,818.10
2023-04-02T20:08:04.801Z,819.83
2023-04-02T20:10:31.461Z,817.97
2023-04-02T20:12:58.052Z,810.80
2023-04-02T20:15:24.803Z,805.20
2023-04-02T20:17:51.457Z,809.67
2023-04-02T20:20:18.063Z,802.97
2023-04-02T20:22:44.925Z,806.05
2023-04-02T20:25:11.581Z,809.40
2023-04-02T20:27:38.236Z,813.35
2023-04-02T20:30:05.585Z,809.13
2023-04-02T20:32:32.413Z,806.95
2023-04-02T20:34:59.121Z,813.97
2023-04-02T20:37:25.795Z,815.45
2023-04-02T20:39:52.682Z,815.67
2023-04-02T20:42:19.503Z,812.92
2023-04-02T20:44:46.341Z,807.00
2023-04-02T20:47:13.172Z,807.22
2023-04-02T20:49:39.785Z,807.50
2023-04-02T20:52:06.799Z,806.72
2023-04-02T20:54:33.441Z,796.35
2023-04-02T20:57:00.339Z,801.42
2023-04-02T20:59:26.981Z,796.15
2023-04-02T21:01:53.700Z,799.63
2023-04-02T21:04:20.513Z,801.28
2023-04-02T21:06:47.262Z,788.92
2023-04-02T21:09:16.182Z,792.53
2023-04-02T21:11:43.532Z,786.90
2023-04-02T21:14:10.940Z,785.83
2023-04-02T21:16:39.204Z,781.67
2023-04-02T21:19:08.225Z,767.23
2023-04-02T21:21:36.249Z,780.28
2023-04-02T21:24:05.923Z,765.07
2023-04-02T21:26:35.121Z,774.88
2023-04-02T21:29:02.335Z,764.17
2023-04-02T21:31:35.079Z,755.85
2023-04-02T21:34:01.854Z,770.73
2023-04-02T21:36:31.182Z,747.75
2023-04-02T21:39:04.800Z,762.38
2023-04-02T21:41:37.071Z,755.15
2023-04-02T21:44:05.926Z,751.87
2023-04-02T21:46:36.218Z,752.38
2023-04-02T21:49:03.299Z,762.47
2023-04-02T21:51:32.154Z,762.60
2023-04-02T21:54:00.957Z,753.45
2023-04-02T21:56:35.672Z,756.97
2023-04-02T21:59:03.691Z,752.50
2023-04-02T22:01:33.698Z,742.92
2023-04-02T22:04:03.305Z,744.75
2023-04-02T22:06:32.551Z,744.53
2023-04-02T22:09:06.026Z,745.10
2023-04-02T22:11:36.712Z,738.65
2023-04-02T22:14:04.064Z,727.75
2023-04-02T22:16:33.087Z,735.50
2023-04-02T22:19:02.006Z,743.10
2023-04-02T22:21:30.604Z,732.53
2023-04-02T22:24:00.382Z,735.28
2023-04-02T22:26:27.566Z,728.90
2023-04-02T22:28:54.406Z,736.65
2023-04-02T22:31:24.570Z,724.28
2023-04-02T22:33:53.110Z,724.78
2023-04-02T22:36:21.974Z,718.60
2023-04-02T22:38:48.983Z,721.97
2023-04-02T22:41:18.058Z,723.15
2023-04-02T22:43:45.815Z,719.80
2023-04-02T22:46:14.896Z,712.83
2023-04-02T22:48:43.242Z,717.47
2023-04-02T22:51:12.169Z,712.70
2023-04-02T22:53:39.569Z,710.20
2023-04-02T22:56:08.094Z,710.83
2023-04-02T22:58:35.667Z,706.47
